createdAt,value
2023-03-05T00:01:39.705Z,1.00
2023-03-05T00:04:08.683Z,1.30
2023-03-05T00:06:35.904Z,1.37
2023-03-05T00:09:03.425Z,1.20
2023-03-05T00:11:31.727Z,1.20
2023-03-05T00:13:59.576Z,1.23
2023-03-05T00:16:27.320Z,1.20
2023-03-05T00:18:55.135Z,1.10
2023-03-05T00:21:26.516Z,1.30
2023-03-05T00:23:54.067Z,1.10
2023-03-05T00:26:22.589Z,0.93
2023-03-05T00:28:51.664Z,2.33
2023-03-05T00:31:23.565Z,1.00
2023-03-05T00:33:55.056Z,1.37
2023-03-05T00:36:22.555Z,1.10
2023-03-05T00:38:49.751Z,1.20
2023-03-05T00:41:17.174Z,1.10
2023-03-05T00:43:44.677Z,1.10
2023-03-05T00:46:12.293Z,0.97
2023-03-05T00:48:39.538Z,1.00
2023-03-05T00:51:06.779Z,1.13
2023-03-05T00:53:33.937Z,0.93
2023-03-05T00:56:01.130Z,0.77
2023-03-05T00:58:28.502Z,0.90
2023-03-05T01:00:58.926Z,0.90
2023-03-05T01:03:26.373Z,0.80
2023-03-05T01:05:53.522Z,0.87
2023-03-05T01:08:20.720Z,1.00
2023-03-05T01:10:48.063Z,0.93
2023-03-05T01:13:15.309Z,1.10
2023-03-05T01:15:42.493Z,0.70
2023-03-05T01:18:09.623Z,0.90
2023-03-05T01:20:36.918Z,0.90
2023-03-05T01:23:04.139Z,0.80
2023-03-05T01:25:31.336Z,1.00
2023-03-05T01:27:58.709Z,0.90
2023-03-05T01:30:25.842Z,0.83
2023-03-05T01:32:53.073Z,0.77
2023-03-05T01:35:21.773Z,0.80
2023-03-05T01:37:48.974Z,0.83
2023-03-05T01:40:17.361Z,0.77
2023-03-05T01:42:48.413Z,0.80
2023-03-05T01:45:17.326Z,0.90
2023-03-05T01:47:44.993Z,1.00
2023-03-05T01:50:18.032Z,0.70
2023-03-05T01:52:48.798Z,0.93
2023-03-05T01:55:18.148Z,1.00
2023-03-05T01:57:55.554Z,0.90
2023-03-05T02:00:34.902Z,0.90
2023-03-05T02:03:06.656Z,0.53
2023-03-05T02:05:35.438Z,1.00
2023-03-05T02:08:04.175Z,0.97
2023-03-05T02:10:39.250Z,0.97
2023-03-05T02:13:08.306Z,0.80
2023-03-05T02:15:35.600Z,0.80
2023-03-05T02:18:03.153Z,0.80
2023-03-05T02:20:31.684Z,0.60
2023-03-05T02:22:58.824Z,0.90
2023-03-05T02:25:27.554Z,1.10
2023-03-05T02:28:00.828Z,0.70
2023-03-05T02:30:28.698Z,0.70
2023-03-05T02:32:56.306Z,0.60
2023-03-05T02:35:23.529Z,0.87
2023-03-05T02:37:50.836Z,0.90
2023-03-05T02:40:18.092Z,0.93
2023-03-05T02:42:45.668Z,0.73
2023-03-05T02:45:13.374Z,1.07
2023-03-05T02:47:40.514Z,0.80
2023-03-05T02:50:08.583Z,0.83
2023-03-05T02:52:35.734Z,0.73
2023-03-05T02:55:02.903Z,0.60
2023-03-05T02:57:30.081Z,0.63
2023-03-05T02:59:57.276Z,0.60
2023-03-05T03:02:24.427Z,0.77
2023-03-05T03:04:51.564Z,0.60
2023-03-05T03:07:18.866Z,1.00
2023-03-05T03:09:46.038Z,0.63
2023-03-05T03:12:13.433Z,0.73
2023-03-05T03:14:42.359Z,0.83
2023-03-05T03:17:13.925Z,0.80
2023-03-05T03:19:41.774Z,0.63
2023-03-05T03:22:10.334Z,0.70
2023-03-05T03:24:38.361Z,0.70
2023-03-05T03:27:05.587Z,0.50
2023-03-05T03:29:32.709Z,0.60
2023-03-05T03:31:59.962Z,0.70
2023-03-05T03:34:27.533Z,0.67
2023-03-05T03:36:54.700Z,0.63
2023-03-05T03:39:22.328Z,0.90
2023-03-05T03:41:50.458Z,0.97
2023-03-05T03:44:18.903Z,1.03
2023-03-05T03:46:46.723Z,0.87
2023-03-05T03:49:19.156Z,0.90
2023-03-05T03:51:46.813Z,0.70
2023-03-05T03:54:14.469Z,0.60
2023-03-05T03:56:41.761Z,0.73
2023-03-05T03:59:09.227Z,0.83
2023-03-05T04:01:36.821Z,0.70
2023-03-05T04:04:04.283Z,0.87
2023-03-05T04:06:31.543Z,0.40
2023-03-05T04:08:58.932Z,0.63
2023-03-05T04:11:26.128Z,0.77
2023-03-05T04:13:53.361Z,0.90
2023-03-05T04:16:20.628Z,0.80
2023-03-05T04:18:47.835Z,0.73
2023-03-05T04:21:15.020Z,0.70
2023-03-05T04:23:42.187Z,0.90
2023-03-05T04:26:09.386Z,0.70
2023-03-05T04:28:36.698Z,0.70
2023-03-05T04:31:04.222Z,0.90
2023-03-05T04:33:31.697Z,0.83
2023-03-05T04:35:59.136Z,0.70
2023-03-05T04:38:26.295Z,1.10
2023-03-05T04:40:53.462Z,0.77
2023-03-05T04:43:20.601Z,0.80
2023-03-05T04:45:47.720Z,0.93
2023-03-05T04:48:14.922Z,0.77
2023-03-05T04:50:42.134Z,0.70
2023-03-05T04:53:09.304Z,0.53
2023-03-05T04:55:36.527Z,1.07
2023-03-05T04:58:03.824Z,0.70
2023-03-05T05:00:30.967Z,0.53
2023-03-05T05:02:58.185Z,0.40
2023-03-05T05:05:26.675Z,0.47
2023-03-05T05:07:57.404Z,0.70
2023-03-05T05:10:25.507Z,0.83
2023-03-05T05:12:52.657Z,0.80
2023-03-05T05:15:19.880Z,0.43
2023-03-05T05:17:47.153Z,0.60
2023-03-05T05:20:14.913Z,0.43
2023-03-05T05:22:42.328Z,0.63
2023-03-05T05:25:10.404Z,0.80
2023-03-05T05:27:38.343Z,0.50
2023-03-05T05:30:05.650Z,1.00
2023-03-05T05:32:32.911Z,0.47
2023-03-05T05:35:00.081Z,0.70
2023-03-05T05:37:27.676Z,1.07
2023-03-05T05:39:54.958Z,0.70
2023-03-05T05:42:23.380Z,0.37
2023-03-05T05:44:50.969Z,0.53
2023-03-05T05:47:18.561Z,0.87
2023-03-05T05:49:45.738Z,0.70
2023-03-05T05:52:13.407Z,0.80
2023-03-05T05:54:40.817Z,0.47
2023-03-05T05:57:08.069Z,0.70
2023-03-05T05:59:35.356Z,0.60
2023-03-05T06:02:02.563Z,0.70
2023-03-05T06:04:29.713Z,0.73
2023-03-05T06:06:56.927Z,0.70
2023-03-05T06:09:24.055Z,0.70
2023-03-05T06:11:51.209Z,0.70
2023-03-05T06:14:18.389Z,0.67
2023-03-05T06:16:45.585Z,0.60
2023-03-05T06:19:13.224Z,0.70
2023-03-05T06:21:40.689Z,0.70
2023-03-05T06:24:08.078Z,0.43
2023-03-05T06:26:35.232Z,0.70
2023-03-05T06:29:02.411Z,1.00
2023-03-05T06:31:30.037Z,0.60
2023-03-05T06:34:01.146Z,0.60
2023-03-05T06:36:28.752Z,0.83
2023-03-05T06:38:56.171Z,0.53
2023-03-05T06:41:25.669Z,0.50
2023-03-05T06:43:53.144Z,0.70
2023-03-05T06:46:20.437Z,0.57
2023-03-05T06:48:47.843Z,0.70
2023-03-05T06:51:16.822Z,0.60
2023-03-05T06:53:44.699Z,0.80
2023-03-05T06:56:13.872Z,0.60
2023-03-05T06:58:41.749Z,0.50
2023-03-05T07:01:09.049Z,0.53
2023-03-05T07:03:36.818Z,0.60
2023-03-05T07:06:08.513Z,0.53
2023-03-05T07:08:36.021Z,0.70
2023-03-05T07:11:03.371Z,0.70
2023-03-05T07:13:30.566Z,0.47
2023-03-05T07:15:57.734Z,0.77
2023-03-05T07:18:24.859Z,0.60
2023-03-05T07:20:51.989Z,0.77
2023-03-05T07:23:19.109Z,0.70
2023-03-05T07:25:46.297Z,0.60
2023-03-05T07:28:13.488Z,0.60
2023-03-05T07:30:40.624Z,0.67
2023-03-05T07:33:07.806Z,0.80
2023-03-05T07:35:35.008Z,0.70
2023-03-05T07:38:02.167Z,0.63
2023-03-05T07:40:29.351Z,0.63
2023-03-05T07:42:56.519Z,0.70
2023-03-05T07:45:23.703Z,0.73
2023-03-05T07:47:52.536Z,0.67
2023-03-05T07:50:19.820Z,0.63
2023-03-05T07:52:46.971Z,0.70
2023-03-05T07:55:14.114Z,0.80
2023-03-05T07:57:41.245Z,0.50
2023-03-05T08:00:08.742Z,0.80
2023-03-05T08:02:35.893Z,0.70
2023-03-05T08:05:03.199Z,0.80
2023-03-05T08:07:30.320Z,0.80
2023-03-05T08:09:57.455Z,1.00
2023-03-05T08:12:24.613Z,0.90
2023-03-05T08:14:51.799Z,1.00
2023-03-05T08:17:19.026Z,0.90
2023-03-05T08:19:46.137Z,0.90
2023-03-05T08:22:16.075Z,0.90
2023-03-05T08:24:43.653Z,0.90
2023-03-05T08:27:10.776Z,1.40
2023-03-05T08:29:37.956Z,0.70
2023-03-05T08:32:05.291Z,0.90
2023-03-05T08:34:32.592Z,0.60
2023-03-05T08:36:59.778Z,0.90
2023-03-05T08:39:27.034Z,0.83
2023-03-05T08:41:54.170Z,0.80
2023-03-05T08:44:21.290Z,0.80
2023-03-05T08:46:48.705Z,0.70
2023-03-05T08:49:15.943Z,0.70
2023-03-05T08:51:43.096Z,0.60
2023-03-05T08:54:10.464Z,0.70
2023-03-05T08:56:37.761Z,0.70
2023-03-05T08:59:04.922Z,0.53
2023-03-05T09:01:32.444Z,0.80
2023-03-05T09:04:00.315Z,1.00
2023-03-05T09:06:28.453Z,0.90
2023-03-05T09:08:55.932Z,0.60
2023-03-05T09:11:23.608Z,0.67
2023-03-05T09:13:50.737Z,0.67
2023-03-05T09:16:18.960Z,0.63
2023-03-05T09:18:46.324Z,0.70
2023-03-05T09:21:17.690Z,0.90
2023-03-05T09:23:47.373Z,0.50
2023-03-05T09:26:15.823Z,0.40
2023-03-05T09:28:43.147Z,0.60
2023-03-05T09:31:11.211Z,0.70
2023-03-05T09:33:38.530Z,0.80
2023-03-05T09:36:06.519Z,0.60
2023-03-05T09:38:33.840Z,0.60
2023-03-05T09:41:07.274Z,0.80
2023-03-05T09:43:46.617Z,0.60
2023-03-05T09:46:21.073Z,0.70
2023-03-05T09:48:48.222Z,0.80
2023-03-05T09:51:23.709Z,0.90
2023-03-05T09:53:50.874Z,0.80
2023-03-05T09:56:21.617Z,0.70
2023-03-05T09:58:55.998Z,0.73
2023-03-05T10:01:29.080Z,0.80
2023-03-05T10:03:59.096Z,0.80
2023-03-05T10:06:29.312Z,0.90
2023-03-05T10:08:58.696Z,0.70
2023-03-05T10:11:35.257Z,1.07
2023-03-05T10:14:03.197Z,1.00
2023-03-05T10:16:30.299Z,0.80
2023-03-05T10:19:17.757Z,0.93
2023-03-05T10:21:47.657Z,1.30
2023-03-05T10:24:21.140Z,0.90
2023-03-05T10:26:48.260Z,0.80
2023-03-05T10:29:31.909Z,1.10
2023-03-05T10:32:03.994Z,1.03
2023-03-05T10:34:50.181Z,0.80
2023-03-05T10:37:17.436Z,0.97
2023-03-05T10:39:52.373Z,0.90
2023-03-05T10:42:25.893Z,0.90
2023-03-05T10:45:01.198Z,0.90
2023-03-05T10:47:37.298Z,1.10
2023-03-05T10:50:14.897Z,0.70
2023-03-05T10:52:46.728Z,1.10
2023-03-05T10:55:15.816Z,0.90
2023-03-05T10:57:43.099Z,0.77
2023-03-05T11:00:20.929Z,0.80
2023-03-05T11:02:54.392Z,0.90
2023-03-05T11:05:40.164Z,0.90
2023-03-05T11:08:25.731Z,0.93
2023-03-05T11:11:11.290Z,0.70
2023-03-05T11:13:42.042Z,0.50
2023-03-05T11:16:18.028Z,0.67
2023-03-05T11:18:46.849Z,1.07
2023-03-05T11:21:23.784Z,1.00
2023-03-05T11:24:09.620Z,0.90
2023-03-05T11:26:36.941Z,0.93
2023-03-05T11:29:09.917Z,0.97
2023-03-05T11:31:37.087Z,1.40
2023-03-05T11:34:24.612Z,0.80
2023-03-05T11:36:54.869Z,1.00
2023-03-05T11:39:23.263Z,0.93
2023-03-05T11:41:50.471Z,1.00
2023-03-05T11:44:25.752Z,1.30
2023-03-05T11:47:14.471Z,1.10
2023-03-05T11:49:43.841Z,1.00
2023-03-05T11:52:17.201Z,0.90
2023-03-05T11:54:53.340Z,0.77
2023-03-05T11:57:22.151Z,0.80
2023-03-05T11:59:51.254Z,1.00
2023-03-05T12:02:21.098Z,1.00
2023-03-05T12:04:49.128Z,1.23
2023-03-05T12:07:18.433Z,1.30
2023-03-05T12:09:50.028Z,0.93
2023-03-05T12:12:36.179Z,1.00
2023-03-05T12:15:23.259Z,1.13
2023-03-05T12:17:58.513Z,1.10
2023-03-05T12:20:34.685Z,1.43
2023-03-05T12:23:02.025Z,1.60
2023-03-05T12:25:33.032Z,0.80
2023-03-05T12:28:00.809Z,0.93
2023-03-05T12:30:43.637Z,0.67
2023-03-05T12:33:29.410Z,0.97
2023-03-05T12:36:16.495Z,0.60
2023-03-05T12:38:44.152Z,0.63
2023-03-05T12:41:23.852Z,0.90
2023-03-05T12:44:07.223Z,1.17
2023-03-05T12:46:35.631Z,1.00
2023-03-05T12:49:23.037Z,0.87
2023-03-05T12:51:51.446Z,0.70
2023-03-05T12:54:34.088Z,0.90
2023-03-05T12:57:02.797Z,0.80
2023-03-05T12:59:47.590Z,1.20
2023-03-05T13:02:18.990Z,1.00
2023-03-05T13:04:46.618Z,0.90
2023-03-05T13:07:18.353Z,1.00
2023-03-05T13:09:56.128Z,0.90
2023-03-05T13:12:23.818Z,0.90
2023-03-05T13:15:01.890Z,1.10
2023-03-05T13:17:30.708Z,1.00
2023-03-05T13:19:59.700Z,0.80
2023-03-05T13:22:27.400Z,0.80
2023-03-05T13:25:09.940Z,1.07
2023-03-05T13:27:37.080Z,1.57
2023-03-05T13:30:04.351Z,1.10
2023-03-05T13:32:32.533Z,1.20
2023-03-05T13:35:00.602Z,0.93
2023-03-05T13:37:28.897Z,1.10
2023-03-05T13:39:58.042Z,0.97
2023-03-05T13:42:26.206Z,1.10
2023-03-05T13:44:58.000Z,1.10
2023-03-05T13:47:28.388Z,1.10
2023-03-05T13:50:00.242Z,0.63
2023-03-05T13:52:31.638Z,0.90
2023-03-05T13:54:59.977Z,1.20
2023-03-05T13:57:45.855Z,0.97
2023-03-05T14:00:32.996Z,0.90
2023-03-05T14:03:09.834Z,0.97
2023-03-05T14:05:37.339Z,0.90
2023-03-05T14:08:04.564Z,1.00
2023-03-05T14:10:36.651Z,0.90
2023-03-05T14:13:12.476Z,1.00
2023-03-05T14:15:40.174Z,0.83
2023-03-05T14:18:13.136Z,1.20
2023-03-05T14:20:41.116Z,1.20
2023-03-05T14:23:27.337Z,0.97
2023-03-05T14:26:11.775Z,0.97
2023-03-05T14:28:39.001Z,0.97
2023-03-05T14:31:13.892Z,0.87
2023-03-05T14:33:41.109Z,1.50
2023-03-05T14:36:08.822Z,1.40
2023-03-05T14:38:39.474Z,0.87
2023-03-05T14:41:22.500Z,1.00
2023-03-05T14:43:49.732Z,0.90
2023-03-05T14:46:17.383Z,0.83
2023-03-05T14:48:44.542Z,0.93
2023-03-05T14:51:12.256Z,0.93
2023-03-05T14:53:40.579Z,0.80
2023-03-05T14:56:17.206Z,1.30
2023-03-05T14:58:44.324Z,0.93
2023-03-05T15:01:12.859Z,0.80
2023-03-05T15:03:41.545Z,1.17
2023-03-05T15:06:15.181Z,1.00
2023-03-05T15:08:42.357Z,0.70
2023-03-05T15:11:11.335Z,0.80
2023-03-05T15:13:38.669Z,0.90
2023-03-05T15:16:06.434Z,1.17
2023-03-05T15:18:33.673Z,0.80
2023-03-05T15:21:02.411Z,0.87
2023-03-05T15:23:35.259Z,1.00
2023-03-05T15:26:05.502Z,0.80
2023-03-05T15:28:34.581Z,0.83
2023-03-05T15:31:01.807Z,1.00
2023-03-05T15:33:29.295Z,1.00
2023-03-05T15:35:56.708Z,0.80
2023-03-05T15:38:23.919Z,1.10
2023-03-05T15:40:51.600Z,0.90
2023-03-05T15:43:19.199Z,0.90
2023-03-05T15:45:46.491Z,0.80
2023-03-05T15:48:13.696Z,0.90
2023-03-05T15:50:42.811Z,1.00
2023-03-05T15:53:10.790Z,1.07
2023-03-05T15:55:38.969Z,1.30
2023-03-05T15:58:06.133Z,1.00
2023-03-05T16:00:35.289Z,1.07
2023-03-05T16:03:02.429Z,1.07
2023-03-05T16:05:29.591Z,1.00
2023-03-05T16:07:56.997Z,1.13
2023-03-05T16:10:26.183Z,1.00
2023-03-05T16:12:58.302Z,1.30
2023-03-05T16:15:25.716Z,0.80
2023-03-05T16:17:55.200Z,0.97
2023-03-05T16:20:22.558Z,1.00
2023-03-05T16:22:49.835Z,0.90
2023-03-05T16:25:17.344Z,1.00
2023-03-05T16:27:44.765Z,1.10
2023-03-05T16:30:12.272Z,1.43
2023-03-05T16:32:39.499Z,1.23
2023-03-05T16:35:06.853Z,0.97
2023-03-05T16:37:34.046Z,1.07
2023-03-05T16:40:01.177Z,0.90
2023-03-05T16:42:28.326Z,1.03
2023-03-05T16:44:55.518Z,1.10
2023-03-05T16:47:22.674Z,1.20
2023-03-05T16:49:49.860Z,1.40
2023-03-05T16:52:19.697Z,1.10
2023-03-05T16:54:48.152Z,1.10
2023-03-05T16:57:15.595Z,1.43
2023-03-05T16:59:43.720Z,1.00
2023-03-05T17:02:13.226Z,1.10
2023-03-05T17:04:40.553Z,1.30
2023-03-05T17:07:08.092Z,0.90
2023-03-05T17:09:35.523Z,1.10
2023-03-05T17:12:02.753Z,1.30
2023-03-05T17:14:29.925Z,1.13
2023-03-05T17:16:57.178Z,1.20
2023-03-05T17:19:24.309Z,0.90
2023-03-05T17:21:52.292Z,1.40
2023-03-05T17:24:22.266Z,1.07
2023-03-05T17:26:50.165Z,0.93
2023-03-05T17:29:18.953Z,1.10
2023-03-05T17:31:46.768Z,1.00
2023-03-05T17:34:14.345Z,1.00
2023-03-05T17:36:41.560Z,1.27
2023-03-05T17:39:08.848Z,1.10
2023-03-05T17:41:36.105Z,1.43
2023-03-05T17:44:03.311Z,1.30
2023-03-05T17:46:30.497Z,1.40
2023-03-05T17:48:57.658Z,1.17
2023-03-05T17:51:24.805Z,1.20
2023-03-05T17:53:51.961Z,1.20
2023-03-05T17:56:21.972Z,1.37
2023-03-05T17:58:49.908Z,1.07
2023-03-05T18:01:24.122Z,1.00
2023-03-05T18:03:51.412Z,1.50
2023-03-05T18:06:18.737Z,1.33
2023-03-05T18:08:45.994Z,1.10
2023-03-05T18:11:13.126Z,1.10
2023-03-05T18:13:40.413Z,1.40
2023-03-05T18:16:07.689Z,1.10
2023-03-05T18:18:34.857Z,1.50
2023-03-05T18:21:02.079Z,1.20
2023-03-05T18:23:29.202Z,1.30
2023-03-05T18:25:56.365Z,1.20
2023-03-05T18:28:25.722Z,1.10
2023-03-05T18:30:53.053Z,1.23
2023-03-05T18:33:24.390Z,1.23
2023-03-05T18:35:52.472Z,1.20
2023-03-05T18:38:21.079Z,1.00
2023-03-05T18:40:51.078Z,1.40
2023-03-05T18:43:20.494Z,1.20
2023-03-05T18:45:51.879Z,1.57
2023-03-05T18:48:19.128Z,0.97
2023-03-05T18:50:46.427Z,1.20
2023-03-05T18:53:14.324Z,1.10
2023-03-05T18:55:42.803Z,1.23
2023-03-05T18:58:10.495Z,1.13
2023-03-05T19:00:37.622Z,1.40
2023-03-05T19:03:05.813Z,0.93
2023-03-05T19:05:33.230Z,1.20
2023-03-05T19:08:00.584Z,1.20
2023-03-05T19:10:28.245Z,1.63
2023-03-05T19:13:07.918Z,1.10
2023-03-05T19:15:35.179Z,1.20
2023-03-05T19:18:02.309Z,1.00
2023-03-05T19:20:29.450Z,1.23
2023-03-05T19:22:56.902Z,1.17
2023-03-05T19:25:24.062Z,1.30
2023-03-05T19:27:51.373Z,1.50
2023-03-05T19:30:18.620Z,1.47
2023-03-05T19:32:47.181Z,1.50
2023-03-05T19:35:16.044Z,1.40
2023-03-05T19:37:45.788Z,1.60
2023-03-05T19:40:14.343Z,1.20
2023-03-05T19:42:41.592Z,1.50
2023-03-05T19:45:09.663Z,1.33
2023-03-05T19:47:36.968Z,1.30
2023-03-05T19:50:05.348Z,1.37
2023-03-05T19:52:32.525Z,1.63
2023-03-05T19:55:00.284Z,1.17
2023-03-05T19:57:27.509Z,1.33
2023-03-05T19:59:54.721Z,1.30
2023-03-05T20:02:22.003Z,1.30
2023-03-05T20:04:49.733Z,1.30
2023-03-05T20:07:17.036Z,1.10
2023-03-05T20:09:44.384Z,1.30
2023-03-05T20:12:11.627Z,1.40
2023-03-05T20:14:38.916Z,1.73
2023-03-05T20:17:06.059Z,2.50
2023-03-05T20:19:33.308Z,1.40
2023-03-05T20:22:00.739Z,1.10
2023-03-05T20:24:27.873Z,1.38
2023-03-05T20:26:55.208Z,1.50
2023-03-05T20:29:22.342Z,1.20
2023-03-05T20:31:50.078Z,1.23
2023-03-05T20:34:18.179Z,1.50
2023-03-05T20:36:45.702Z,1.40
2023-03-05T20:39:12.834Z,1.30
2023-03-05T20:41:40.916Z,1.10
2023-03-05T20:44:08.969Z,1.63
2023-03-05T20:46:39.321Z,1.30
2023-03-05T20:49:06.735Z,1.20
2023-03-05T20:51:35.806Z,0.90
2023-03-05T20:54:07.521Z,1.00
2023-03-05T20:56:35.575Z,0.90
2023-03-05T20:59:04.582Z,0.90
2023-03-05T21:01:32.880Z,1.10
2023-03-05T21:04:00.049Z,0.80
2023-03-05T21:06:27.875Z,1.00
2023-03-05T21:08:55.126Z,1.00
2023-03-05T21:11:22.647Z,1.07
2023-03-05T21:13:49.802Z,0.97
2023-03-05T21:16:18.518Z,1.07
2023-03-05T21:18:45.742Z,0.90
2023-03-05T21:21:12.881Z,0.83
2023-03-05T21:23:40.483Z,1.30
2023-03-05T21:26:08.066Z,1.10
2023-03-05T21:28:35.246Z,1.10
2023-03-05T21:31:09.819Z,1.30
2023-03-05T21:33:37.360Z,0.83
2023-03-05T21:36:06.332Z,1.13
2023-03-05T21:38:34.672Z,1.30
2023-03-05T21:41:02.257Z,1.47
2023-03-05T21:43:31.143Z,1.30
2023-03-05T21:45:58.551Z,1.13
2023-03-05T21:48:26.043Z,1.23
2023-03-05T21:50:54.742Z,1.20
2023-03-05T21:53:22.117Z,1.40
2023-03-05T21:56:20.826Z,1.43
2023-03-05T21:58:48.130Z,1.50
2023-03-05T22:01:16.178Z,1.57
2023-03-05T22:03:43.414Z,1.57
2023-03-05T22:06:11.113Z,1.33
2023-03-05T22:08:38.245Z,1.50
2023-03-05T22:11:09.533Z,1.50
2023-03-05T22:13:37.438Z,1.43
2023-03-05T22:16:04.947Z,1.50
2023-03-05T22:18:33.008Z,1.60
2023-03-05T22:21:00.181Z,1.60
2023-03-05T22:23:29.240Z,1.47
2023-03-05T22:25:57.811Z,1.53
2023-03-05T22:28:25.144Z,1.40
2023-03-05T22:30:52.377Z,1.10
2023-03-05T22:33:21.959Z,1.63
2023-03-05T22:35:50.253Z,1.33
2023-03-05T22:38:17.627Z,1.10
2023-03-05T22:40:45.736Z,1.30
2023-03-05T22:43:12.997Z,1.07
2023-03-05T22:45:40.569Z,0.90
2023-03-05T22:48:09.760Z,1.10
2023-03-05T22:50:40.491Z,1.07
2023-03-05T22:53:07.642Z,1.30
2023-03-05T22:55:34.805Z,1.30
2023-03-05T22:58:01.960Z,1.20
2023-03-05T23:00:29.079Z,1.43
2023-03-05T23:02:56.268Z,1.03
2023-03-05T23:05:23.456Z,0.73
2023-03-05T23:07:50.599Z,1.00
2023-03-05T23:10:27.019Z,1.30
2023-03-05T23:12:55.364Z,1.40
2023-03-05T23:15:24.184Z,1.20
2023-03-05T23:17:51.424Z,1.20
2023-03-05T23:20:20.863Z,1.00
2023-03-05T23:22:48.603Z,1.20
2023-03-05T23:25:16.472Z,1.10
2023-03-05T23:27:43.810Z,1.20
2023-03-05T23:30:17.272Z,1.00
2023-03-05T23:32:51.929Z,1.10
2023-03-05T23:35:23.672Z,1.07
2023-03-05T23:37:51.594Z,0.90
2023-03-05T23:40:29.452Z,1.23
2023-03-05T23:42:56.651Z,0.70
2023-03-05T23:45:24.438Z,0.70
2023-03-05T23:47:52.922Z,0.90
2023-03-05T23:50:24.047Z,1.20
2023-03-05T23:52:51.454Z,1.13
2023-03-05T23:55:20.297Z,0.97
2023-03-05T23:57:47.625Z,1.10
